sensor_id;sensor_type;location;lat;lon;timestamp;temperature;humidity
67131;HTU21D;54051;53.464;49.532;2022-08-21T00:01:11;16.47;70.30
67131;HTU21D;54051;53.464;49.532;2022-08-21T00:03:38;16.50;70.20
67131;HTU21D;54051;53.464;49.532;2022-08-21T00:06:05;16.54;69.99
67131;HTU21D;54051;53.464;49.532;2022-08-21T00:08:31;16.54;69.62
67131;HTU21D;54051;53.464;49.532;2022-08-21T00:10:57;16.57;69.45
67131;HTU21D;54051;53.464;49.532;2022-08-21T00:13:23;16.50;69.33
67131;HTU21D;54051;53.464;49.532;2022-08-21T00:15:49;16.46;69.20
67131;HTU21D;54051;53.464;49.532;2022-08-21T00:18:16;16.39;69.50
67131;HTU21D;54051;53.464;49.532;2022-08-21T00:20:44;16.41;69.32
67131;HTU21D;54051;53.464;49.532;2022-08-21T00:23:10;16.34;69.79
67131;HTU21D;54051;53.464;49.532;2022-08-21T00:25:37;16.25;70.34
67131;HTU21D;54051;53.464;49.532;2022-08-21T00:28:04;16.22;70.35
67131;HTU21D;54051;53.464;49.532;2022-08-21T00:30:33;16.21;70.53
67131;HTU21D;54051;53.464;49.532;2022-08-21T00:32:59;16.20;70.35
67131;HTU21D;54051;53.464;49.532;2022-08-21T00:35:32;16.24;71.26
67131;HTU21D;54051;53.464;49.532;2022-08-21T00:37:59;16.22;71.40
67131;HTU21D;54051;53.464;49.532;2022-08-21T00:40:40;16.19;71.94
67131;HTU21D;54051;53.464;49.532;2022-08-21T00:43:08;16.17;71.96
67131;HTU21D;54051;53.464;49.532;2022-08-21T00:45:35;16.20;71.92
67131;HTU21D;54051;53.464;49.532;2022-08-21T00:48:01;16.21;71.81
67131;HTU21D;54051;53.464;49.532;2022-08-21T00:50:30;16.22;71.78
67131;HTU21D;54051;53.464;49.532;2022-08-21T00:52:58;16.19;72.03
67131;HTU21D;54051;53.464;49.532;2022-08-21T00:55:26;16.12;72.33
67131;HTU21D;54051;53.464;49.532;2022-08-21T00:57:55;16.15;72.23
67131;HTU21D;54051;53.464;49.532;2022-08-21T01:00:28;16.17;72.00
67131;HTU21D;54051;53.464;49.532;2022-08-21T01:02:56;16.16;71.90
67131;HTU21D;54051;53.464;49.532;2022-08-21T01:05:22;16.19;71.70
67131;HTU21D;54051;53.464;49.532;2022-08-21T01:07:48;16.19;71.91
67131;HTU21D;54051;53.464;49.532;2022-08-21T01:10:14;16.18;72.09
67131;HTU21D;54051;53.464;49.532;2022-08-21T01:12:40;16.16;72.03
67131;HTU21D;54051;53.464;49.532;2022-08-21T01:15:08;16.13;72.45
67131;HTU21D;54051;53.464;49.532;2022-08-21T01:17:35;16.11;72.57
67131;HTU21D;54051;53.464;49.532;2022-08-21T01:20:03;16.13;72.26
67131;HTU21D;54051;53.464;49.532;2022-08-21T01:22:30;16.13;72.20
67131;HTU21D;54051;53.464;49.532;2022-08-21T01:24:56;16.11;71.93
67131;HTU21D;54051;53.464;49.532;2022-08-21T01:27:22;16.11;71.56
67131;HTU21D;54051;53.464;49.532;2022-08-21T01:29:56;16.14;71.37
67131;HTU21D;54051;53.464;49.532;2022-08-21T01:32:23;16.16;71.16
67131;HTU21D;54051;53.464;49.532;2022-08-21T01:34:50;16.17;71.52
67131;HTU21D;54051;53.464;49.532;2022-08-21T01:37:18;16.21;71.24
67131;HTU21D;54051;53.464;49.532;2022-08-21T01:39:45;16.32;71.26
67131;HTU21D;54051;53.464;49.532;2022-08-21T01:42:12;16.33;71.70
67131;HTU21D;54051;53.464;49.532;2022-08-21T01:44:38;16.37;71.46
67131;HTU21D;54051;53.464;49.532;2022-08-21T01:47:07;16.44;71.28
67131;HTU21D;54051;53.464;49.532;2022-08-21T01:49:34;16.50;71.32
67131;HTU21D;54051;53.464;49.532;2022-08-21T01:52:01;16.58;71.08
67131;HTU21D;54051;53.464;49.532;2022-08-21T01:54:27;16.66;71.30
67131;HTU21D;54051;53.464;49.532;2022-08-21T01:56:54;16.70;71.76
67131;HTU21D;54051;53.464;49.532;2022-08-21T01:59:22;16.71;71.97
67131;HTU21D;54051;53.464;49.532;2022-08-21T02:01:48;16.76;71.93
67131;HTU21D;54051;53.464;49.532;2022-08-21T02:04:15;16.84;72.20
67131;HTU21D;54051;53.464;49.532;2022-08-21T02:06:41;16.87;72.13
67131;HTU21D;54051;53.464;49.532;2022-08-21T02:09:09;16.94;72.05
67131;HTU21D;54051;53.464;49.532;2022-08-21T02:11:36;17.03;71.81
67131;HTU21D;54051;53.464;49.532;2022-08-21T02:14:13;17.04;72.19
67131;HTU21D;54051;53.464;49.532;2022-08-21T02:16:42;17.01;72.05
67131;HTU21D;54051;53.464;49.532;2022-08-21T02:19:09;17.00;71.87
67131;HTU21D;54051;53.464;49.532;2022-08-21T02:21:35;17.06;71.64
67131;HTU21D;54051;53.464;49.532;2022-08-21T02:24:02;17.16;71.04
67131;HTU21D;54051;53.464;49.532;2022-08-21T02:26:28;17.22;70.61
67131;HTU21D;54051;53.464;49.532;2022-08-21T02:28:54;17.31;69.94
67131;HTU21D;54051;53.464;49.532;2022-08-21T02:31:20;17.36;69.22
67131;HTU21D;54051;53.464;49.532;2022-08-21T02:33:46;17.36;69.20
67131;HTU21D;54051;53.464;49.532;2022-08-21T02:36:12;17.36;69.04
67131;HTU21D;54051;53.464;49.532;2022-08-21T02:38:40;17.37;69.17
67131;HTU21D;54051;53.464;49.532;2022-08-21T02:41:09;17.36;69.39
67131;HTU21D;54051;53.464;49.532;2022-08-21T02:43:36;17.38;69.80
67131;HTU21D;54051;53.464;49.532;2022-08-21T02:46:05;17.43;69.52
67131;HTU21D;54051;53.464;49.532;2022-08-21T02:48:33;17.56;69.04
67131;HTU21D;54051;53.464;49.532;2022-08-21T02:51:02;17.73;68.55
67131;HTU21D;54051;53.464;49.532;2022-08-21T02:53:29;17.94;67.86
67131;HTU21D;54051;53.464;49.532;2022-08-21T02:55:57;18.12;67.21
67131;HTU21D;54051;53.464;49.532;2022-08-21T02:58:27;18.17;67.39
67131;HTU21D;54051;53.464;49.532;2022-08-21T03:00:54;18.29;66.84
67131;HTU21D;54051;53.464;49.532;2022-08-21T03:03:20;18.59;65.30
67131;HTU21D;54051;53.464;49.532;2022-08-21T03:05:47;20.53;58.33
67131;HTU21D;54051;53.464;49.532;2022-08-21T03:08:14;24.04;47.31
67131;HTU21D;54051;53.464;49.532;2022-08-21T03:10:44;26.16;41.46
67131;HTU21D;54051;53.464;49.532;2022-08-21T03:13:11;27.63;37.93
67131;HTU21D;54051;53.464;49.532;2022-08-21T03:15:37;29.17;34.54
67131;HTU21D;54051;53.464;49.532;2022-08-21T03:18:04;30.41;31.57
67131;HTU21D;54051;53.464;49.532;2022-08-21T03:20:31;30.94;30.49
67131;HTU21D;54051;53.464;49.532;2022-08-21T03:22:59;31.76;28.93
67131;HTU21D;54051;53.464;49.532;2022-08-21T03:25:26;32.67;27.16
67131;HTU21D;54051;53.464;49.532;2022-08-21T03:27:53;31.55;28.73
67131;HTU21D;54051;53.464;49.532;2022-08-21T03:30:20;32.09;27.91
67131;HTU21D;54051;53.464;49.532;2022-08-21T03:32:48;33.31;25.91
67131;HTU21D;54051;53.464;49.532;2022-08-21T03:35:14;34.08;24.43
67131;HTU21D;54051;53.464;49.532;2022-08-21T03:37:41;35.04;22.69
67131;HTU21D;54051;53.464;49.532;2022-08-21T03:40:08;35.35;22.09
67131;HTU21D;54051;53.464;49.532;2022-08-21T03:42:35;35.77;21.24
67131;HTU21D;54051;53.464;49.532;2022-08-21T03:45:01;34.98;21.85
67131;HTU21D;54051;53.464;49.532;2022-08-21T03:47:27;34.01;23.17
67131;HTU21D;54051;53.464;49.532;2022-08-21T03:49:53;33.66;23.99
67131;HTU21D;54051;53.464;49.532;2022-08-21T03:52:19;32.39;26.27
67131;HTU21D;54051;53.464;49.532;2022-08-21T03:54:45;31.98;26.84
67131;HTU21D;54051;53.464;49.532;2022-08-21T03:57:11;31.58;27.54
67131;HTU21D;54051;53.464;49.532;2022-08-21T03:59:37;31.61;27.74
67131;HTU21D;54051;53.464;49.532;2022-08-21T04:02:06;32.03;26.77
67131;HTU21D;54051;53.464;49.532;2022-08-21T04:04:33;32.23;26.21
67131;HTU21D;54051;53.464;49.532;2022-08-21T04:06:59;31.73;27.04
67131;HTU21D;54051;53.464;49.532;2022-08-21T04:09:26;31.75;26.97
67131;HTU21D;54051;53.464;49.532;2022-08-21T04:11:52;32.34;26.34
67131;HTU21D;54051;53.464;49.532;2022-08-21T04:14:19;31.13;28.74
67131;HTU21D;54051;53.464;49.532;2022-08-21T04:16:45;32.14;26.81
67131;HTU21D;54051;53.464;49.532;2022-08-21T04:19:12;33.43;24.74
67131;HTU21D;54051;53.464;49.532;2022-08-21T04:21:39;32.82;25.97
67131;HTU21D;54051;53.464;49.532;2022-08-21T04:24:07;32.90;26.61
67131;HTU21D;54051;53.464;49.532;2022-08-21T04:26:34;33.65;25.43
67131;HTU21D;54051;53.464;49.532;2022-08-21T04:29:00;33.48;25.91
67131;HTU21D;54051;53.464;49.532;2022-08-21T04:31:27;34.46;24.45
67131;HTU21D;54051;53.464;49.532;2022-08-21T04:33:54;34.95;23.38
67131;HTU21D;54051;53.464;49.532;2022-08-21T04:36:20;34.67;23.51
67131;HTU21D;54051;53.464;49.532;2022-08-21T04:38:46;35.54;22.43
67131;HTU21D;54051;53.464;49.532;2022-08-21T04:41:12;36.44;21.01
67131;HTU21D;54051;53.464;49.532;2022-08-21T04:43:39;36.70;20.46
67131;HTU21D;54051;53.464;49.532;2022-08-21T04:46:05;37.49;19.58
67131;HTU21D;54051;53.464;49.532;2022-08-21T04:48:32;37.73;19.20
67131;HTU21D;54051;53.464;49.532;2022-08-21T04:51:17;37.79;18.92
67131;HTU21D;54051;53.464;49.532;2022-08-21T04:53:49;37.32;19.47
67131;HTU21D;54051;53.464;49.532;2022-08-21T04:56:22;37.64;18.95
67131;HTU21D;54051;53.464;49.532;2022-08-21T04:58:50;38.59;17.70
67131;HTU21D;54051;53.464;49.532;2022-08-21T05:01:23;38.82;17.48
67131;HTU21D;54051;53.464;49.532;2022-08-21T05:03:57;39.12;17.12
67131;HTU21D;54051;53.464;49.532;2022-08-21T05:06:28;39.32;16.65
67131;HTU21D;54051;53.464;49.532;2022-08-21T05:08:56;39.63;16.29
67131;HTU21D;54051;53.464;49.532;2022-08-21T05:11:23;38.68;17.39
67131;HTU21D;54051;53.464;49.532;2022-08-21T05:13:49;38.86;17.19
67131;HTU21D;54051;53.464;49.532;2022-08-21T05:16:16;38.34;18.04
67131;HTU21D;54051;53.464;49.532;2022-08-21T05:18:43;39.88;16.21
67131;HTU21D;54051;53.464;49.532;2022-08-21T05:21:09;39.56;16.71
67131;HTU21D;54051;53.464;49.532;2022-08-21T05:23:35;39.52;16.95
67131;HTU21D;54051;53.464;49.532;2022-08-21T05:26:02;40.78;15.26
67131;HTU21D;54051;53.464;49.532;2022-08-21T05:28:30;40.29;16.08
67131;HTU21D;54051;53.464;49.532;2022-08-21T05:30:57;40.16;16.25
67131;HTU21D;54051;53.464;49.532;2022-08-21T05:33:24;40.29;16.07
67131;HTU21D;54051;53.464;49.532;2022-08-21T05:35:54;39.10;17.47
67131;HTU21D;54051;53.464;49.532;2022-08-21T05:38:24;39.08;17.53
67131;HTU21D;54051;53.464;49.532;2022-08-21T05:40:52;39.12;17.58
67131;HTU21D;54051;53.464;49.532;2022-08-21T05:43:18;40.17;16.21
67131;HTU21D;54051;53.464;49.532;2022-08-21T05:45:45;40.53;15.79
67131;HTU21D;54051;53.464;49.532;2022-08-21T05:48:23;41.12;15.37
67131;HTU21D;54051;53.464;49.532;2022-08-21T05:50:50;40.52;17.49
67131;HTU21D;54051;53.464;49.532;2022-08-21T05:53:18;40.56;17.77
67131;HTU21D;54051;53.464;49.532;2022-08-21T05:55:45;39.92;18.68
67131;HTU21D;54051;53.464;49.532;2022-08-21T05:58:12;39.96;18.59
67131;HTU21D;54051;53.464;49.532;2022-08-21T06:00:38;39.58;18.64
67131;HTU21D;54051;53.464;49.532;2022-08-21T06:03:10;39.95;18.57
67131;HTU21D;54051;53.464;49.532;2022-08-21T06:05:36;40.12;18.18
67131;HTU21D;54051;53.464;49.532;2022-08-21T06:08:03;40.76;17.35
67131;HTU21D;54051;53.464;49.532;2022-08-21T06:10:29;41.27;16.87
67131;HTU21D;54051;53.464;49.532;2022-08-21T06:12:58;40.41;18.06
67131;HTU21D;54051;53.464;49.532;2022-08-21T06:15:27;39.92;19.21
67131;HTU21D;54051;53.464;49.532;2022-08-21T06:17:54;39.89;18.64
67131;HTU21D;54051;53.464;49.532;2022-08-21T06:20:20;39.91;18.61
67131;HTU21D;54051;53.464;49.532;2022-08-21T06:22:46;40.70;17.83
67131;HTU21D;54051;53.464;49.532;2022-08-21T06:25:12;41.52;16.49
67131;HTU21D;54051;53.464;49.532;2022-08-21T06:27:38;41.85;16.19
67131;HTU21D;54051;53.464;49.532;2022-08-21T06:30:05;41.52;16.83
67131;HTU21D;54051;53.464;49.532;2022-08-21T06:32:32;40.89;17.51
67131;HTU21D;54051;53.464;49.532;2022-08-21T06:34:58;41.34;17.45
67131;HTU21D;54051;53.464;49.532;2022-08-21T06:37:24;40.41;18.89
67131;HTU21D;54051;53.464;49.532;2022-08-21T06:39:50;39.68;19.76
67131;HTU21D;54051;53.464;49.532;2022-08-21T06:42:16;39.80;19.44
67131;HTU21D;54051;53.464;49.532;2022-08-21T06:44:43;39.86;19.60
67131;HTU21D;54051;53.464;49.532;2022-08-21T06:47:10;40.07;18.80
67131;HTU21D;54051;53.464;49.532;2022-08-21T06:49:36;40.95;17.58
67131;HTU21D;54051;53.464;49.532;2022-08-21T06:52:03;40.67;17.99
67131;HTU21D;54051;53.464;49.532;2022-08-21T06:54:29;40.29;18.76
67131;HTU21D;54051;53.464;49.532;2022-08-21T06:56:56;38.95;20.49
67131;HTU21D;54051;53.464;49.532;2022-08-21T06:59:22;38.18;21.99
67131;HTU21D;54051;53.464;49.532;2022-08-21T07:01:48;39.38;20.41
67131;HTU21D;54051;53.464;49.532;2022-08-21T07:04:14;40.36;18.56
67131;HTU21D;54051;53.464;49.532;2022-08-21T07:06:40;41.63;16.51
67131;HTU21D;54051;53.464;49.532;2022-08-21T07:09:06;41.76;17.12
67131;HTU21D;54051;53.464;49.532;2022-08-21T07:11:32;42.20;16.29
67131;HTU21D;54051;53.464;49.532;2022-08-21T07:13:58;42.57;15.52
67131;HTU21D;54051;53.464;49.532;2022-08-21T07:16:24;41.36;16.33
67131;HTU21D;54051;53.464;49.532;2022-08-21T07:18:50;40.87;17.84
67131;HTU21D;54051;53.464;49.532;2022-08-21T07:21:16;40.71;18.04
67131;HTU21D;54051;53.464;49.532;2022-08-21T07:23:46;40.91;16.51
67131;HTU21D;54051;53.464;49.532;2022-08-21T07:26:16;41.05;16.68
67131;HTU21D;54051;53.464;49.532;2022-08-21T07:28:42;40.97;16.87
67131;HTU21D;54051;53.464;49.532;2022-08-21T07:31:09;40.54;17.13
67131;HTU21D;54051;53.464;49.532;2022-08-21T07:33:39;40.06;17.96
67131;HTU21D;54051;53.464;49.532;2022-08-21T07:36:07;39.94;17.95
67131;HTU21D;54051;53.464;49.532;2022-08-21T07:38:33;39.84;17.54
67131;HTU21D;54051;53.464;49.532;2022-08-21T07:41:01;39.94;17.56
67131;HTU21D;54051;53.464;49.532;2022-08-21T07:43:28;40.00;17.66
67131;HTU21D;54051;53.464;49.532;2022-08-21T07:45:55;39.58;18.01
67131;HTU21D;54051;53.464;49.532;2022-08-21T07:48:22;38.98;19.64
67131;HTU21D;54051;53.464;49.532;2022-08-21T07:50:48;38.48;19.83
67131;HTU21D;54051;53.464;49.532;2022-08-21T07:53:15;39.29;18.60
67131;HTU21D;54051;53.464;49.532;2022-08-21T07:55:41;39.30;18.45
67131;HTU21D;54051;53.464;49.532;2022-08-21T07:58:07;38.91;19.89
67131;HTU21D;54051;53.464;49.532;2022-08-21T08:00:34;39.05;19.15
67131;HTU21D;54051;53.464;49.532;2022-08-21T08:03:00;39.19;19.10
67131;HTU21D;54051;53.464;49.532;2022-08-21T08:05:28;38.53;19.86
67131;HTU21D;54051;53.464;49.532;2022-08-21T08:07:55;37.99;20.00
67131;HTU21D;54051;53.464;49.532;2022-08-21T08:10:22;37.87;20.70
67131;HTU21D;54051;53.464;49.532;2022-08-21T08:12:51;37.06;22.41
67131;HTU21D;54051;53.464;49.532;2022-08-21T08:15:21;37.15;22.83
67131;HTU21D;54051;53.464;49.532;2022-08-21T08:17:47;37.64;21.12
67131;HTU21D;54051;53.464;49.532;2022-08-21T08:20:15;37.96;20.40
67131;HTU21D;54051;53.464;49.532;2022-08-21T08:22:42;38.17;20.18
67131;HTU21D;54051;53.464;49.532;2022-08-21T08:25:09;37.66;21.40
67131;HTU21D;54051;53.464;49.532;2022-08-21T08:27:36;37.93;20.59
67131;HTU21D;54051;53.464;49.532;2022-08-21T08:30:04;37.41;21.09
67131;HTU21D;54051;53.464;49.532;2022-08-21T08:32:30;36.77;21.93
67131;HTU21D;54051;53.464;49.532;2022-08-21T08:34:56;36.59;21.60
67131;HTU21D;54051;53.464;49.532;2022-08-21T08:37:22;35.58;23.36
67131;HTU21D;54051;53.464;49.532;2022-08-21T08:39:49;35.26;24.66
67131;HTU21D;54051;53.464;49.532;2022-08-21T08:42:27;35.35;24.62
67131;HTU21D;54051;53.464;49.532;2022-08-21T08:45:03;35.80;24.45
67131;HTU21D;54051;53.464;49.532;2022-08-21T08:47:31;35.16;24.40
67131;HTU21D;54051;53.464;49.532;2022-08-21T08:50:07;34.52;26.15
67131;HTU21D;54051;53.464;49.532;2022-08-21T08:53:14;34.93;25.83
67131;HTU21D;54051;53.464;49.532;2022-08-21T08:55:42;34.09;26.90
67131;HTU21D;54051;53.464;49.532;2022-08-21T09:00:49;32.11;29.48
67131;HTU21D;54051;53.464;49.532;2022-08-21T09:03:15;31.00;31.73
67131;HTU21D;54051;53.464;49.532;2022-08-21T09:05:48;30.53;33.14
67131;HTU21D;54051;53.464;49.532;2022-08-21T09:14:10;29.34;35.40
67131;HTU21D;54051;53.464;49.532;2022-08-21T09:16:46;29.28;35.47
67131;HTU21D;54051;53.464;49.532;2022-08-21T09:19:44;29.46;35.56
67131;HTU21D;54051;53.464;49.532;2022-08-21T09:22:39;29.54;35.20
67131;HTU21D;54051;53.464;49.532;2022-08-21T09:25:30;29.57;36.17
67131;HTU21D;54051;53.464;49.532;2022-08-21T09:27:56;29.39;36.30
67131;HTU21D;54051;53.464;49.532;2022-08-21T09:30:31;29.34;35.50
67131;HTU21D;54051;53.464;49.532;2022-08-21T09:32:58;29.38;34.10
67131;HTU21D;54051;53.464;49.532;2022-08-21T09:35:24;29.56;34.72
67131;HTU21D;54051;53.464;49.532;2022-08-21T09:38:05;29.34;36.31
67131;HTU21D;54051;53.464;49.532;2022-08-21T09:40:37;29.18;35.86
67131;HTU21D;54051;53.464;49.532;2022-08-21T09:43:18;29.00;35.52
67131;HTU21D;54051;53.464;49.532;2022-08-21T09:45:46;29.16;36.27
67131;HTU21D;54051;53.464;49.532;2022-08-21T09:48:18;29.39;35.79
67131;HTU21D;54051;53.464;49.532;2022-08-21T09:50:46;29.60;34.96
67131;HTU21D;54051;53.464;49.532;2022-08-21T09:53:22;29.59;36.11
67131;HTU21D;54051;53.464;49.532;2022-08-21T09:55:54;29.47;34.95
67131;HTU21D;54051;53.464;49.532;2022-08-21T09:58:43;29.39;35.34
67131;HTU21D;54051;53.464;49.532;2022-08-21T10:01:20;29.52;34.21
67131;HTU21D;54051;53.464;49.532;2022-08-21T10:03:47;29.50;34.27
67131;HTU21D;54051;53.464;49.532;2022-08-21T10:06:25;29.45;34.47
67131;HTU21D;54051;53.464;49.532;2022-08-21T10:09:06;29.53;34.76
67131;HTU21D;54051;53.464;49.532;2022-08-21T10:11:34;29.41;35.47
67131;HTU21D;54051;53.464;49.532;2022-08-21T10:25:21;29.80;34.43
67131;HTU21D;54051;53.464;49.532;2022-08-21T10:30:54;29.94;32.92
67131;HTU21D;54051;53.464;49.532;2022-08-21T10:33:38;29.72;34.69
67131;HTU21D;54051;53.464;49.532;2022-08-21T10:36:18;29.57;34.34
67131;HTU21D;54051;53.464;49.532;2022-08-21T10:41:44;29.54;33.51
67131;HTU21D;54051;53.464;49.532;2022-08-21T10:44:34;29.62;33.95
67131;HTU21D;54051;53.464;49.532;2022-08-21T10:47:13;29.79;33.56
67131;HTU21D;54051;53.464;49.532;2022-08-21T11:00:14;30.04;30.69
67131;HTU21D;54051;53.464;49.532;2022-08-21T11:03:08;30.07;31.31
67131;HTU21D;54051;53.464;49.532;2022-08-21T11:05:57;30.01;31.71
67131;HTU21D;54051;53.464;49.532;2022-08-21T11:08:33;29.94;34.11
67131;HTU21D;54051;53.464;49.532;2022-08-21T11:11:15;30.17;31.07
67131;HTU21D;54051;53.464;49.532;2022-08-21T11:13:47;30.44;30.80
67131;HTU21D;54051;53.464;49.532;2022-08-21T11:16:42;30.21;32.49
67131;HTU21D;54051;53.464;49.532;2022-08-21T11:25:11;30.13;31.42
67131;HTU21D;54051;53.464;49.532;2022-08-21T11:27:43;30.20;30.93
67131;HTU21D;54051;53.464;49.532;2022-08-21T11:30:11;30.13;30.97
67131;HTU21D;54051;53.464;49.532;2022-08-21T11:38:26;30.13;30.44
67131;HTU21D;54051;53.464;49.532;2022-08-21T11:43:51;30.00;31.81
67131;HTU21D;54051;53.464;49.532;2022-08-21T11:49:41;30.23;30.38
67131;HTU21D;54051;53.464;49.532;2022-08-21T11:52:26;30.15;29.98
67131;HTU21D;54051;53.464;49.532;2022-08-21T11:55:06;30.19;29.97
67131;HTU21D;54051;53.464;49.532;2022-08-21T12:00:21;30.24;30.96
67131;HTU21D;54051;53.464;49.532;2022-08-21T12:02:52;30.25;31.30
67131;HTU21D;54051;53.464;49.532;2022-08-21T12:05:31;30.26;30.71
67131;HTU21D;54051;53.464;49.532;2022-08-21T12:08:11;30.26;30.13
67131;HTU21D;54051;53.464;49.532;2022-08-21T12:10:41;30.26;29.74
67131;HTU21D;54051;53.464;49.532;2022-08-21T12:13:26;30.28;30.10
67131;HTU21D;54051;53.464;49.532;2022-08-21T12:15:52;30.19;30.59
67131;HTU21D;54051;53.464;49.532;2022-08-21T12:18:29;30.20;30.15
67131;HTU21D;54051;53.464;49.532;2022-08-21T12:21:02;30.32;30.36
67131;HTU21D;54051;53.464;49.532;2022-08-21T12:23:31;30.22;30.38
67131;HTU21D;54051;53.464;49.532;2022-08-21T12:26:11;30.23;29.72
67131;HTU21D;54051;53.464;49.532;2022-08-21T12:28:39;30.27;30.42
67131;HTU21D;54051;53.464;49.532;2022-08-21T12:31:21;30.23;30.85
67131;HTU21D;54051;53.464;49.532;2022-08-21T12:33:59;30.16;31.40
67131;HTU21D;54051;53.464;49.532;2022-08-21T12:36:44;30.27;30.90
67131;HTU21D;54051;53.464;49.532;2022-08-21T12:39:19;30.31;30.67
67131;HTU21D;54051;53.464;49.532;2022-08-21T12:44:17;30.37;30.99
67131;HTU21D;54051;53.464;49.532;2022-08-21T12:46:58;30.37;30.22
67131;HTU21D;54051;53.464;49.532;2022-08-21T12:49:36;30.36;29.21
67131;HTU21D;54051;53.464;49.532;2022-08-21T12:52:27;30.34;30.25
67131;HTU21D;54051;53.464;49.532;2022-08-21T12:54:54;30.37;31.26
67131;HTU21D;54051;53.464;49.532;2022-08-21T12:57:26;30.46;29.83
67131;HTU21D;54051;53.464;49.532;2022-08-21T12:59:58;30.44;29.56
67131;HTU21D;54051;53.464;49.532;2022-08-21T13:02:29;30.57;28.00
67131;HTU21D;54051;53.464;49.532;2022-08-21T13:04:57;30.59;26.96
67131;HTU21D;54051;53.464;49.532;2022-08-21T13:07:28;30.65;27.17
67131;HTU21D;54051;53.464;49.532;2022-08-21T13:12:29;30.83;27.30
67131;HTU21D;54051;53.464;49.532;2022-08-21T13:14:58;30.69;26.90
67131;HTU21D;54051;53.464;49.532;2022-08-21T13:17:25;30.63;27.28
67131;HTU21D;54051;53.464;49.532;2022-08-21T13:20:01;30.56;26.66
67131;HTU21D;54051;53.464;49.532;2022-08-21T13:22:27;30.53;26.86
67131;HTU21D;54051;53.464;49.532;2022-08-21T13:24:53;30.57;26.83
67131;HTU21D;54051;53.464;49.532;2022-08-21T13:27:29;30.44;26.89
67131;HTU21D;54051;53.464;49.532;2022-08-21T13:30:03;30.39;27.14
67131;HTU21D;54051;53.464;49.532;2022-08-21T13:32:32;30.42;26.98
67131;HTU21D;54051;53.464;49.532;2022-08-21T13:35:08;30.39;27.07
67131;HTU21D;54051;53.464;49.532;2022-08-21T13:37:35;30.45;27.39
67131;HTU21D;54051;53.464;49.532;2022-08-21T13:40:01;30.53;27.98
67131;HTU21D;54051;53.464;49.532;2022-08-21T13:42:27;30.47;30.48
67131;HTU21D;54051;53.464;49.532;2022-08-21T13:44:53;30.30;31.64
67131;HTU21D;54051;53.464;49.532;2022-08-21T13:47:19;30.24;31.37
67131;HTU21D;54051;53.464;49.532;2022-08-21T13:49:48;30.27;28.78
67131;HTU21D;54051;53.464;49.532;2022-08-21T13:52:21;30.33;28.10
67131;HTU21D;54051;53.464;49.532;2022-08-21T13:55:11;30.34;28.45
67131;HTU21D;54051;53.464;49.532;2022-08-21T13:57:37;30.37;28.04
67131;HTU21D;54051;53.464;49.532;2022-08-21T14:00:30;30.40;27.31
67131;HTU21D;54051;53.464;49.532;2022-08-21T14:03:08;30.33;27.84
67131;HTU21D;54051;53.464;49.532;2022-08-21T14:05:38;30.32;27.61
67131;HTU21D;54051;53.464;49.532;2022-08-21T14:08:35;30.32;27.77
67131;HTU21D;54051;53.464;49.532;2022-08-21T14:11:04;30.22;27.79
67131;HTU21D;54051;53.464;49.532;2022-08-21T14:16:20;30.09;28.29
67131;HTU21D;54051;53.464;49.532;2022-08-21T14:18:53;30.05;27.93
67131;HTU21D;54051;53.464;49.532;2022-08-21T14:21:33;30.01;28.51
67131;HTU21D;54051;53.464;49.532;2022-08-21T14:29:25;29.86;27.98
67131;HTU21D;54051;53.464;49.532;2022-08-21T14:31:58;29.80;28.20
67131;HTU21D;54051;53.464;49.532;2022-08-21T14:34:26;29.74;28.28
67131;HTU21D;54051;53.464;49.532;2022-08-21T14:36:53;29.66;28.29
67131;HTU21D;54051;53.464;49.532;2022-08-21T14:39:19;29.60;28.07
67131;HTU21D;54051;53.464;49.532;2022-08-21T14:41:46;29.53;28.14
67131;HTU21D;54051;53.464;49.532;2022-08-21T14:44:16;29.49;28.28
67131;HTU21D;54051;53.464;49.532;2022-08-21T14:46:42;29.46;28.60
67131;HTU21D;54051;53.464;49.532;2022-08-21T14:49:08;29.43;28.67
67131;HTU21D;54051;53.464;49.532;2022-08-21T14:51:34;29.36;28.63
67131;HTU21D;54051;53.464;49.532;2022-08-21T14:54:00;29.42;28.82
67131;HTU21D;54051;53.464;49.532;2022-08-21T14:56:26;29.44;28.39
67131;HTU21D;54051;53.464;49.532;2022-08-21T14:58:53;29.35;28.56
67131;HTU21D;54051;53.464;49.532;2022-08-21T15:01:22;29.28;28.67
67131;HTU21D;54051;53.464;49.532;2022-08-21T15:03:48;29.16;28.79
67131;HTU21D;54051;53.464;49.532;2022-08-21T15:06:15;29.00;29.14
67131;HTU21D;54051;53.464;49.532;2022-08-21T15:08:43;28.88;29.45
67131;HTU21D;54051;53.464;49.532;2022-08-21T15:11:11;28.73;29.68
67131;HTU21D;54051;53.464;49.532;2022-08-21T15:13:38;28.64;29.95
67131;HTU21D;54051;53.464;49.532;2022-08-21T15:16:04;28.56;30.26
67131;HTU21D;54051;53.464;49.532;2022-08-21T15:18:30;28.48;30.48
67131;HTU21D;54051;53.464;49.532;2022-08-21T15:20:56;28.38;30.89
67131;HTU21D;54051;53.464;49.532;2022-08-21T15:23:22;28.28;30.83
67131;HTU21D;54051;53.464;49.532;2022-08-21T15:25:49;28.20;31.25
67131;HTU21D;54051;53.464;49.532;2022-08-21T15:28:16;28.11;31.32
67131;HTU21D;54051;53.464;49.532;2022-08-21T15:30:45;28.04;31.57
67131;HTU21D;54051;53.464;49.532;2022-08-21T15:33:11;27.95;31.65
67131;HTU21D;54051;53.464;49.532;2022-08-21T15:35:37;27.87;32.02
67131;HTU21D;54051;53.464;49.532;2022-08-21T15:38:05;27.78;32.25
67131;HTU21D;54051;53.464;49.532;2022-08-21T15:40:33;27.68;32.59
67131;HTU21D;54051;53.464;49.532;2022-08-21T15:43:01;27.58;32.78
67131;HTU21D;54051;53.464;49.532;2022-08-21T15:45:29;27.51;33.00
67131;HTU21D;54051;53.464;49.532;2022-08-21T15:47:55;27.42;33.26
67131;HTU21D;54051;53.464;49.532;2022-08-21T15:50:22;27.35;33.51
67131;HTU21D;54051;53.464;49.532;2022-08-21T15:52:49;27.25;33.64
67131;HTU21D;54051;53.464;49.532;2022-08-21T15:55:16;27.20;34.40
67131;HTU21D;54051;53.464;49.532;2022-08-21T15:57:45;27.13;35.25
67131;HTU21D;54051;53.464;49.532;2022-08-21T16:00:18;27.08;36.27
67131;HTU21D;54051;53.464;49.532;2022-08-21T16:02:47;26.98;37.09
67131;HTU21D;54051;53.464;49.532;2022-08-21T16:05:15;26.93;37.53
67131;HTU21D;54051;53.464;49.532;2022-08-21T16:07:46;26.85;38.20
67131;HTU21D;54051;53.464;49.532;2022-08-21T16:10:13;26.77;38.01
67131;HTU21D;54051;53.464;49.532;2022-08-21T16:12:47;26.60;38.27
67131;HTU21D;54051;53.464;49.532;2022-08-21T16:15:15;26.49;38.86
67131;HTU21D;54051;53.464;49.532;2022-08-21T16:17:44;26.41;39.32
67131;HTU21D;54051;53.464;49.532;2022-08-21T16:20:17;26.33;38.55
67131;HTU21D;54051;53.464;49.532;2022-08-21T16:22:45;26.27;39.75
67131;HTU21D;54051;53.464;49.532;2022-08-21T16:25:12;26.17;39.74
67131;HTU21D;54051;53.464;49.532;2022-08-21T16:27:40;26.07;39.60